메인 페이지
METAR-TAF:

METAR-TAF

공항 :

Ostend, 벨기에

위도: 51-12N, 경도: 002-52E, 고도: 4m

현재 날씨관측

예보는 37분 전, 12:20시(UTC)에 발표되었습니다.
북북서6kt북서풍과 풍을 오가는
온도 21°C
습도 69%
기압 1022 hPa
시정 10km 이상
고도 2500ft 상공 구름 조금

METAR: EBOS 241220Z 33006KT 310V010 9999 FEW025 21/15 Q1022 NOSIG

시각: 14:57 (12:57 UTC)

예보

예보는 1 시간 57분 전, 11:00시(UTC)에 발표되었습니다.
예보 대상 시간: 24일 12시부터 25일 18시까지 (UTC)
북북서6kt
시정 10km 이상
고도 4000ft 상공 구름 조금

TAF: EBOS 241100Z 2412/2518 34006KT 9999 FEW040

4,000개 이상의 공항 관측 자료 및 예보 (METAR 및 TAF 보고).

지도상에서 검색 가능한 기상관측소가 노란 점과 빨간 점으로 표시되어 있습니다.

기상관측소 명을 보려면 표시 위로 마우스를 이동하세요.

날씨 관측과 예보를 보려면 클릭하세요.

지도 변경 : 확대하려면 엑스 표시가 있는 녹색 버튼, 축소하려면 빼기 표시가 있는 녹색 버튼, 다음 페이지의 지도를 보려면 녹색 화살표를 클릭하세요.


METAR-TAF: